CheckWX is a tool to help pilots better visualize weather data.  It is not intended as a substitute for an official pre-flight weather briefing.

05:43:34 UTC

SLCB TAF
Jorge Wilsterman International Airport
Cochabamba, Bolivia
TAF SLCB 222245Z 2300/2324 20010KT 9999 FEW030 TX28/2319Z TN08/2311Z BECMG 2302/2304 00000KT SCT027 SCT070 BECMG 2314/2316 21010KT FEW030

Aug-23@
00:00 UTC

Aug-23 @ 00:00 UTC

Aug-23@
02:00 UTC

Aug-23 @ 02:00 UTC

TAF SLCB 222245Z 2300/2324 20010KT 9999 FEW030 TX28/2319Z TN08/2311Z

Expired

Wind
  • 200° at 10 KTS
Cloud Levels
  • Few at 3,000' AGL

Aug-23@
02:00 UTC

Aug-23 @ 02:00 UTC

Aug-23@
14:00 UTC

Aug-23 @ 14:00 UTC

BECMG 2302/2304 00000KT SCT027 SCT070

Becoming

Becoming Conditions expected by Fri, Aug 23, 2019 @ 04:00 UTC

Cloud Levels
  • Scattered at 2,700' AGL
  • Scattered at 7,000' AGL

Aug-23@
14:00 UTC

Aug-23 @ 14:00 UTC

Aug-24@
00:00 UTC

Aug-24 @ 00:00 UTC

BECMG 2314/2316 21010KT FEW030

Becoming

Becoming Conditions expected by Fri, Aug 23, 2019 @ 16:00 UTC

Wind
  • 210° at 10 KTS
Cloud Levels
  • Few at 3,000' AGL